createdAt,value
2018-09-20T00:00:00.389Z,0.00
2018-09-20T00:01:00.378Z,0.00
2018-09-20T00:02:00.361Z,0.00
2018-09-20T00:03:00.347Z,0.00
2018-09-20T00:04:00.331Z,0.00
2018-09-20T00:05:00.315Z,0.00
2018-09-20T00:06:00.311Z,0.00
2018-09-20T00:07:00.293Z,0.00
2018-09-20T00:08:00.276Z,0.00
2018-09-20T00:09:00.259Z,0.00
2018-09-20T00:10:00.243Z,0.00
2018-09-20T00:11:00.232Z,0.00
2018-09-20T00:12:00.218Z,0.00
2018-09-20T00:13:00.202Z,0.00
2018-09-20T00:14:00.190Z,0.00
2018-09-20T00:15:00.178Z,0.00
2018-09-20T00:16:00.161Z,0.00
2018-09-20T00:17:00.150Z,0.00
2018-09-20T00:18:00.135Z,0.00
2018-09-20T00:19:00.118Z,0.00
2018-09-20T00:20:00.106Z,0.00
2018-09-20T00:21:00.085Z,0.00
2018-09-20T00:22:00.073Z,0.00
2018-09-20T00:23:00.056Z,0.00
2018-09-20T00:24:00.117Z,0.00
2018-09-20T00:25:00.032Z,0.00
2018-09-20T00:26:00.015Z,0.00
2018-09-20T00:27:00.002Z,0.00
2018-09-20T00:27:59.992Z,0.00
2018-09-20T00:28:59.974Z,0.00
2018-09-20T00:29:59.957Z,0.00
2018-09-20T00:30:59.944Z,0.00
2018-09-20T00:31:59.928Z,0.00
2018-09-20T00:32:59.917Z,0.00
2018-09-20T00:33:59.907Z,0.00
2018-09-20T00:34:59.885Z,0.00
2018-09-20T00:35:59.866Z,0.00
2018-09-20T00:36:59.854Z,0.00
2018-09-20T00:37:59.842Z,0.00
2018-09-20T00:38:59.829Z,0.00
2018-09-20T00:39:59.824Z,0.00
2018-09-20T00:40:59.798Z,0.00
2018-09-20T00:41:59.782Z,0.00
2018-09-20T00:42:59.767Z,0.00
2018-09-20T00:43:59.757Z,0.00
2018-09-20T00:44:59.744Z,0.00
2018-09-20T00:45:59.727Z,0.00
2018-09-20T00:46:59.713Z,0.00
2018-09-20T00:47:59.694Z,0.00
2018-09-20T00:48:59.678Z,0.00
2018-09-20T00:49:59.671Z,0.00
2018-09-20T00:50:59.646Z,0.00
2018-09-20T00:51:59.638Z,0.00
2018-09-20T00:52:59.628Z,0.00
2018-09-20T00:53:59.608Z,0.00
2018-09-20T00:54:59.592Z,0.00
2018-09-20T00:55:59.578Z,0.00
2018-09-20T00:56:59.560Z,0.00
2018-09-20T00:57:59.549Z,0.00
2018-09-20T00:58:59.533Z,0.00
2018-09-20T00:59:59.523Z,0.00
2018-09-20T01:00:59.504Z,0.00
2018-09-20T01:01:59.490Z,0.00
2018-09-20T01:02:59.476Z,0.00
2018-09-20T01:03:59.458Z,0.00
2018-09-20T01:04:59.448Z,0.00
2018-09-20T01:05:59.430Z,0.00
2018-09-20T01:06:59.416Z,0.00
2018-09-20T01:07:59.406Z,0.00
2018-09-20T01:08:59.386Z,0.00
2018-09-20T01:09:59.377Z,0.00
2018-09-20T01:10:59.358Z,0.00
2018-09-20T01:11:59.345Z,0.00
2018-09-20T01:12:59.329Z,0.00
2018-09-20T01:13:59.320Z,0.00
2018-09-20T01:14:59.298Z,0.00
2018-09-20T01:15:59.284Z,0.00
2018-09-20T01:16:59.269Z,0.00
2018-09-20T01:17:59.254Z,0.00
2018-09-20T01:18:59.240Z,0.00
2018-09-20T01:19:59.224Z,0.00
2018-09-20T01:20:59.211Z,0.00
2018-09-20T01:21:59.194Z,0.00
2018-09-20T01:22:59.178Z,0.00
2018-09-20T01:23:59.166Z,0.00
2018-09-20T01:24:59.158Z,0.00
2018-09-20T01:25:59.134Z,0.00
2018-09-20T01:26:59.126Z,0.00
2018-09-20T01:27:59.110Z,0.00
2018-09-20T01:28:59.092Z,0.00
2018-09-20T01:29:59.080Z,0.00
2018-09-20T01:30:59.065Z,0.00
2018-09-20T01:31:59.054Z,0.00
2018-09-20T01:32:59.033Z,0.00
2018-09-20T01:33:59.018Z,0.00
2018-09-20T01:34:59.000Z,0.00
2018-09-20T01:35:58.988Z,0.00
2018-09-20T01:36:58.974Z,0.00
2018-09-20T01:37:58.961Z,0.00
2018-09-20T01:38:58.942Z,0.00
2018-09-20T01:39:58.932Z,0.00
2018-09-20T01:40:58.917Z,0.00
2018-09-20T01:41:58.904Z,0.00
2018-09-20T01:42:58.882Z,0.00
2018-09-20T01:43:58.869Z,0.00
2018-09-20T01:44:58.855Z,0.00
2018-09-20T01:46:41.372Z,0.00
2018-09-20T01:47:41.355Z,0.00
2018-09-20T01:48:41.340Z,0.00
2018-09-20T01:49:41.327Z,0.00
2018-09-20T01:50:41.316Z,0.00
2018-09-20T01:51:41.293Z,0.00
2018-09-20T01:52:41.278Z,0.00
2018-09-20T01:53:41.266Z,0.00
2018-09-20T01:54:41.249Z,0.00
2018-09-20T01:55:41.234Z,0.00
2018-09-20T01:56:41.220Z,0.00
2018-09-20T01:57:41.207Z,0.00
2018-09-20T01:58:41.186Z,0.00
2018-09-20T01:59:41.174Z,0.00
2018-09-20T02:00:41.160Z,0.00
2018-09-20T02:01:41.144Z,0.00
2018-09-20T02:02:41.130Z,0.00
2018-09-20T02:03:41.116Z,0.00
2018-09-20T02:04:41.100Z,0.00
2018-09-20T02:05:41.090Z,0.00
2018-09-20T02:06:41.071Z,0.00
2018-09-20T02:07:41.054Z,0.00
2018-09-20T02:08:41.037Z,0.00
2018-09-20T02:09:41.030Z,0.00
2018-09-20T02:10:41.006Z,0.00
2018-09-20T02:12:28.536Z,0.00
2018-09-20T02:13:28.563Z,0.00
2018-09-20T02:14:28.498Z,0.00
2018-09-20T02:15:28.486Z,0.00
2018-09-20T02:16:28.463Z,0.00
2018-09-20T02:17:28.454Z,0.00
2018-09-20T02:18:28.435Z,0.00
2018-09-20T02:19:28.421Z,0.00
2018-09-20T02:20:28.408Z,0.00
2018-09-20T02:21:28.391Z,0.00
2018-09-20T02:22:28.368Z,0.00
2018-09-20T02:23:28.357Z,0.00
2018-09-20T02:24:28.337Z,0.00
2018-09-20T02:25:28.321Z,0.00
2018-09-20T02:26:28.317Z,0.00
2018-09-20T02:27:28.292Z,0.00
2018-09-20T02:28:28.271Z,0.00
2018-09-20T02:29:28.258Z,0.00
2018-09-20T02:30:28.244Z,0.00
2018-09-20T02:31:28.224Z,0.00
2018-09-20T02:32:28.210Z,0.00
2018-09-20T02:33:28.192Z,0.00
2018-09-20T02:34:28.176Z,0.00
2018-09-20T02:35:28.156Z,0.00
2018-09-20T02:36:28.142Z,0.00
2018-09-20T02:37:28.124Z,0.00
2018-09-20T02:38:28.106Z,0.00
2018-09-20T02:39:28.090Z,0.00
2018-09-20T02:40:28.073Z,0.00
2018-09-20T02:41:28.058Z,0.00
2018-09-20T02:42:28.045Z,0.00
2018-09-20T02:43:28.024Z,0.00
2018-09-20T02:44:28.007Z,0.00
2018-09-20T02:45:28.005Z,0.00
2018-09-20T02:46:27.968Z,0.00
2018-09-20T02:47:27.950Z,0.00
2018-09-20T02:48:27.940Z,0.00
2018-09-20T02:49:27.920Z,0.00
2018-09-20T02:50:27.906Z,0.00
2018-09-20T02:51:27.888Z,0.00
2018-09-20T02:52:27.866Z,0.00
2018-09-20T02:53:27.848Z,0.00
2018-09-20T02:54:27.836Z,0.00
2018-09-20T02:55:27.814Z,0.00
2018-09-20T02:56:27.800Z,0.00
2018-09-20T02:57:27.782Z,0.00
2018-09-20T02:58:27.764Z,0.00
2018-09-20T02:59:27.748Z,0.00
2018-09-20T03:00:27.732Z,0.00
2018-09-20T03:01:27.719Z,0.00
2018-09-20T03:02:27.695Z,0.00
2018-09-20T03:03:27.676Z,0.00
2018-09-20T03:04:27.657Z,0.00
2018-09-20T03:05:27.644Z,0.00
2018-09-20T03:06:27.624Z,0.00
2018-09-20T03:07:27.610Z,0.00
2018-09-20T03:08:27.591Z,0.00
2018-09-20T03:09:27.573Z,0.00
2018-09-20T03:10:27.557Z,0.00
2018-09-20T03:11:27.543Z,0.00
2018-09-20T03:12:27.521Z,0.00
2018-09-20T03:13:27.505Z,0.00
2018-09-20T03:14:27.488Z,0.00
2018-09-20T03:15:27.477Z,0.00
2018-09-20T03:16:27.455Z,0.00
2018-09-20T03:17:27.439Z,0.00
2018-09-20T03:18:27.417Z,0.00
2018-09-20T03:19:27.402Z,0.00
2018-09-20T03:20:27.380Z,0.00
2018-09-20T03:21:27.369Z,0.00
2018-09-20T03:22:27.343Z,0.00
2018-09-20T03:23:27.326Z,0.00
2018-09-20T03:24:27.310Z,0.00
2018-09-20T03:25:27.294Z,0.00
2018-09-20T03:26:27.275Z,0.00
2018-09-20T03:27:27.256Z,0.00
2018-09-20T03:28:27.241Z,0.00
2018-09-20T03:29:27.226Z,0.00
2018-09-20T03:30:27.317Z,0.00
2018-09-20T03:31:27.190Z,0.00
2018-09-20T03:32:27.164Z,0.00
2018-09-20T03:33:27.153Z,0.00
2018-09-20T03:34:27.140Z,0.00
2018-09-20T03:35:27.118Z,0.00
2018-09-20T03:36:27.095Z,0.00
2018-09-20T03:37:27.082Z,0.00
2018-09-20T03:38:27.067Z,0.00
2018-09-20T03:39:27.047Z,0.00
2018-09-20T03:40:27.031Z,0.00
2018-09-20T03:41:27.011Z,0.00
2018-09-20T03:42:26.995Z,0.00
2018-09-20T03:43:26.982Z,0.00
2018-09-20T03:44:26.955Z,0.00
2018-09-20T03:45:26.941Z,0.00
2018-09-20T03:46:26.928Z,0.00
2018-09-20T03:47:26.909Z,0.00
2018-09-20T03:48:26.889Z,0.00
2018-09-20T03:49:26.872Z,0.00
2018-09-20T03:50:26.851Z,0.00
2018-09-20T03:51:26.833Z,0.00
2018-09-20T03:52:26.811Z,0.00
2018-09-20T03:53:26.793Z,0.00
2018-09-20T03:54:26.777Z,0.00
2018-09-20T03:55:26.761Z,0.00
2018-09-20T03:56:26.745Z,0.00
2018-09-20T03:57:26.727Z,0.00
2018-09-20T03:58:26.709Z,0.00
2018-09-20T03:59:26.687Z,0.00
2018-09-20T04:00:26.668Z,0.00
2018-09-20T04:01:26.655Z,0.00
2018-09-20T04:02:26.631Z,0.00
2018-09-20T04:03:26.615Z,0.00
2018-09-20T04:04:26.597Z,0.00
2018-09-20T04:05:26.581Z,0.00
2018-09-20T04:06:26.563Z,0.00
2018-09-20T04:07:26.545Z,0.00
2018-09-20T04:08:26.525Z,0.00
2018-09-20T04:09:26.511Z,0.00
2018-09-20T04:10:26.495Z,0.00
2018-09-20T04:11:26.479Z,0.00
2018-09-20T04:12:26.454Z,0.00
2018-09-20T04:13:26.435Z,0.00
2018-09-20T04:14:26.416Z,0.00
2018-09-20T04:15:26.401Z,0.00
2018-09-20T04:16:26.384Z,0.00
2018-09-20T04:17:26.371Z,0.00
2018-09-20T04:18:26.347Z,0.00
2018-09-20T04:19:26.326Z,0.00
2018-09-20T04:20:26.312Z,0.00
2018-09-20T04:21:26.283Z,0.00
2018-09-20T04:22:26.271Z,0.00
2018-09-20T04:23:26.255Z,0.00
2018-09-20T04:24:26.237Z,0.00
2018-09-20T04:25:26.219Z,0.00
2018-09-20T04:26:26.198Z,0.00
2018-09-20T04:27:26.182Z,0.00
2018-09-20T04:28:26.170Z,0.00
2018-09-20T04:29:26.152Z,0.00
2018-09-20T04:30:26.125Z,0.00
2018-09-20T04:31:26.109Z,0.00
2018-09-20T04:32:26.095Z,0.00
2018-09-20T04:33:26.069Z,0.00
2018-09-20T04:34:26.057Z,0.00
2018-09-20T04:35:26.037Z,0.00
2018-09-20T04:36:26.021Z,0.00
2018-09-20T04:37:25.998Z,0.00
2018-09-20T04:38:25.980Z,0.00
2018-09-20T04:39:25.959Z,0.00
2018-09-20T04:40:25.953Z,0.00
2018-09-20T04:41:25.928Z,0.00
2018-09-20T04:42:25.908Z,0.00
2018-09-20T04:43:25.898Z,0.00
2018-09-20T04:44:25.872Z,5.63
2018-09-20T04:45:25.854Z,5.63
2018-09-20T04:46:25.880Z,5.63
2018-09-20T04:47:25.815Z,5.63
2018-09-20T04:48:25.796Z,5.63
2018-09-20T04:49:25.791Z,5.63
2018-09-20T04:50:25.781Z,5.63
2018-09-20T04:51:25.746Z,5.63
2018-09-20T04:52:25.725Z,11.25
2018-09-20T04:53:25.819Z,11.25
2018-09-20T04:54:25.689Z,11.25
2018-09-20T04:55:25.673Z,11.25
2018-09-20T04:56:25.651Z,11.25
2018-09-20T04:57:25.637Z,16.88
2018-09-20T04:58:25.616Z,16.88
2018-09-20T04:59:25.597Z,16.88
2018-09-20T05:00:25.578Z,16.88
2018-09-20T05:01:25.566Z,22.50
2018-09-20T05:02:25.545Z,22.50
2018-09-20T05:03:25.518Z,22.50
2018-09-20T05:04:25.508Z,22.50
2018-09-20T05:05:25.486Z,28.13
2018-09-20T05:06:25.469Z,28.13
2018-09-20T05:07:25.448Z,28.13
2018-09-20T05:08:25.778Z,28.13
2018-09-20T05:09:25.416Z,33.75
2018-09-20T05:10:25.392Z,33.75
2018-09-20T05:11:25.374Z,33.75
2018-09-20T05:12:25.359Z,33.75
2018-09-20T05:13:25.341Z,33.75
2018-09-20T05:14:25.323Z,33.75
2018-09-20T05:15:25.304Z,33.75
2018-09-20T05:16:25.284Z,33.75
2018-09-20T05:17:25.266Z,39.38
2018-09-20T05:18:25.248Z,39.38
2018-09-20T05:19:25.228Z,39.38
2018-09-20T05:20:25.208Z,39.38
2018-09-20T05:21:25.190Z,39.38
2018-09-20T05:22:25.170Z,45.00
2018-09-20T05:23:25.167Z,45.00
2018-09-20T05:24:25.135Z,45.00
2018-09-20T05:25:25.119Z,45.00
2018-09-20T05:26:25.102Z,45.00
2018-09-20T05:27:25.078Z,45.00
2018-09-20T05:28:25.066Z,50.63
2018-09-20T05:29:25.042Z,50.63
2018-09-20T05:30:25.020Z,50.63
2018-09-20T05:31:25.003Z,50.63
2018-09-20T05:32:24.987Z,56.25
2018-09-20T05:33:25.008Z,56.25
2018-09-20T05:34:24.947Z,56.25
2018-09-20T05:35:24.937Z,56.25
2018-09-20T05:36:24.909Z,56.25
2018-09-20T05:37:24.895Z,61.88
2018-09-20T05:38:24.873Z,61.88
2018-09-20T05:39:24.854Z,61.88
2018-09-20T05:40:24.845Z,61.88
2018-09-20T05:41:24.818Z,61.88
2018-09-20T05:42:24.799Z,61.88
2018-09-20T05:43:24.813Z,61.88
2018-09-20T05:44:24.763Z,61.88
2018-09-20T05:45:24.749Z,67.50
2018-09-20T05:46:24.727Z,67.50
2018-09-20T05:47:24.707Z,67.50
2018-09-20T05:48:24.689Z,73.13
2018-09-20T05:49:24.675Z,73.13
2018-09-20T05:50:24.656Z,78.75
2018-09-20T05:51:24.639Z,78.75
2018-09-20T05:52:24.615Z,84.38
2018-09-20T05:53:24.599Z,90.00
2018-09-20T05:54:24.582Z,90.00
2018-09-20T05:55:24.560Z,95.63
2018-09-20T05:56:24.541Z,95.63
2018-09-20T05:57:24.526Z,101.25
2018-09-20T05:58:24.510Z,101.25
2018-09-20T05:59:24.897Z,106.88
2018-09-20T06:00:24.473Z,106.88
2018-09-20T06:01:24.453Z,112.50
2018-09-20T06:02:24.432Z,112.50
2018-09-20T06:03:24.422Z,112.50
2018-09-20T06:04:24.402Z,112.50
2018-09-20T06:05:24.377Z,112.50
2018-09-20T06:06:24.365Z,118.13
2018-09-20T06:07:24.348Z,118.13
2018-09-20T06:08:24.327Z,123.75
2018-09-20T06:09:24.307Z,123.75
2018-09-20T06:10:24.285Z,129.38
2018-09-20T06:11:24.272Z,129.38
2018-09-20T06:12:24.247Z,135.00
2018-09-20T06:13:24.232Z,135.00
2018-09-20T06:14:24.217Z,135.00
2018-09-20T06:15:24.193Z,140.63
2018-09-20T06:16:24.181Z,146.25
2018-09-20T06:17:24.159Z,151.88
2018-09-20T06:18:24.144Z,157.50
2018-09-20T06:19:24.127Z,157.50
2018-09-20T06:20:24.110Z,163.13
2018-09-20T06:21:24.091Z,163.13
2018-09-20T06:22:24.069Z,163.13
2018-09-20T06:23:24.053Z,168.75
2018-09-20T06:24:24.043Z,168.75
2018-09-20T06:25:24.019Z,168.75
2018-09-20T06:26:24.001Z,168.75
2018-09-20T06:27:23.983Z,174.38
2018-09-20T06:28:23.961Z,174.38
2018-09-20T06:29:23.945Z,180.00
2018-09-20T06:30:23.935Z,185.63
2018-09-20T06:31:23.910Z,191.25
2018-09-20T06:32:23.892Z,191.25
2018-09-20T06:33:23.877Z,196.88
2018-09-20T06:34:23.857Z,196.88
2018-09-20T06:35:23.835Z,196.88
2018-09-20T06:36:23.819Z,202.50
2018-09-20T06:37:23.803Z,202.50
2018-09-20T06:38:23.797Z,202.50
2018-09-20T06:39:23.775Z,208.13
2018-09-20T06:40:23.749Z,208.13
2018-09-20T06:41:23.729Z,208.13
2018-09-20T06:42:23.713Z,219.38
2018-09-20T06:43:23.697Z,225.00
2018-09-20T06:44:23.684Z,213.75
2018-09-20T06:45:23.665Z,230.63
2018-09-20T06:46:23.643Z,225.00
2018-09-20T06:47:23.628Z,225.00
2018-09-20T06:48:23.609Z,219.38
2018-09-20T06:49:23.593Z,219.38
2018-09-20T06:50:23.617Z,219.38
2018-09-20T06:51:23.560Z,219.38
2018-09-20T06:52:23.539Z,208.13
2018-09-20T06:53:23.525Z,202.50
2018-09-20T06:54:23.518Z,202.50
2018-09-20T06:55:23.489Z,202.50
2018-09-20T06:56:23.477Z,208.13
2018-09-20T06:57:23.459Z,213.75
2018-09-20T06:58:23.432Z,219.38
2018-09-20T06:59:23.419Z,225.00
2018-09-20T07:00:23.410Z,230.63
2018-09-20T07:01:23.383Z,225.00
2018-09-20T07:02:23.369Z,230.63
2018-09-20T07:03:23.361Z,236.25
2018-09-20T07:04:23.336Z,230.63
2018-09-20T07:05:23.317Z,247.50
2018-09-20T07:06:23.305Z,247.50
2018-09-20T07:07:23.281Z,253.13
2018-09-20T07:08:23.267Z,320.63
2018-09-20T07:09:23.250Z,376.88
2018-09-20T07:10:23.233Z,478.13
2018-09-20T07:11:23.223Z,630.00
2018-09-20T07:12:23.200Z,635.63
2018-09-20T07:13:23.188Z,579.38
2018-09-20T07:14:23.167Z,393.75
2018-09-20T07:15:23.157Z,343.13
2018-09-20T07:16:23.130Z,315.00
2018-09-20T07:17:23.123Z,326.25
2018-09-20T07:18:23.106Z,298.13
2018-09-20T07:19:23.083Z,292.50
2018-09-20T07:20:23.066Z,292.50
2018-09-20T07:21:23.063Z,286.88
2018-09-20T07:22:23.037Z,292.50
2018-09-20T07:23:23.019Z,320.63
2018-09-20T07:24:23.009Z,360.00
2018-09-20T07:25:23.018Z,410.63
2018-09-20T07:26:22.972Z,466.88
2018-09-20T07:27:22.957Z,506.25
2018-09-20T07:28:22.939Z,523.13
2018-09-20T07:29:22.925Z,551.25
2018-09-20T07:30:22.908Z,556.88
2018-09-20T07:31:22.893Z,556.88
2018-09-20T07:32:22.877Z,590.63
2018-09-20T07:33:22.863Z,573.75
2018-09-20T07:34:22.848Z,585.00
2018-09-20T07:35:22.830Z,590.63
2018-09-20T07:36:22.813Z,613.13
2018-09-20T07:37:22.797Z,585.00
2018-09-20T07:38:22.783Z,540.00
2018-09-20T07:39:22.773Z,517.50
2018-09-20T07:40:22.759Z,511.88
2018-09-20T07:41:22.741Z,517.50
2018-09-20T07:42:22.728Z,540.00
2018-09-20T07:43:22.763Z,596.25
2018-09-20T07:44:22.694Z,635.63
2018-09-20T07:45:22.681Z,579.38
2018-09-20T07:46:22.673Z,506.25
2018-09-20T07:47:22.663Z,489.38
2018-09-20T07:48:22.639Z,483.75
2018-09-20T07:49:22.630Z,472.50
2018-09-20T07:50:22.615Z,483.75
2018-09-20T07:51:22.596Z,517.50
2018-09-20T07:52:22.585Z,556.88
2018-09-20T07:53:22.574Z,641.25
2018-09-20T07:54:22.563Z,1063.13
2018-09-20T07:55:22.541Z,1445.63
2018-09-20T07:56:22.533Z,1462.50
2018-09-20T07:57:22.513Z,1293.75
2018-09-20T07:58:22.497Z,1220.63
2018-09-20T07:59:22.491Z,1276.88
2018-09-20T08:00:22.475Z,1282.50
2018-09-20T08:01:22.511Z,1395.00
2018-09-20T08:02:22.445Z,1468.13
2018-09-20T08:03:22.442Z,1614.38
2018-09-20T08:04:22.424Z,1845.00
2018-09-20T08:05:22.407Z,1895.63
2018-09-20T08:06:22.397Z,1805.63
2018-09-20T08:07:22.382Z,1822.50
2018-09-20T08:08:22.373Z,1918.13
2018-09-20T08:09:22.357Z,2075.63
2018-09-20T08:10:22.345Z,1940.63
2018-09-20T08:11:22.343Z,1822.50
2018-09-20T08:12:22.328Z,1918.13
2018-09-20T08:13:22.309Z,1861.88
2018-09-20T08:14:22.298Z,1445.63
2018-09-20T08:15:22.289Z,1231.88
2018-09-20T08:16:22.276Z,1192.50
2018-09-20T08:17:22.261Z,1653.75
2018-09-20T08:18:22.255Z,1980.00
2018-09-20T08:19:22.239Z,2103.75
2018-09-20T08:20:22.231Z,2064.38
2018-09-20T08:21:22.282Z,2070.00
2018-09-20T08:22:22.209Z,2058.75
2018-09-20T08:23:22.193Z,2036.25
2018-09-20T08:24:22.189Z,2036.25
2018-09-20T08:25:22.178Z,2053.13
2018-09-20T08:26:22.164Z,2379.38
2018-09-20T08:27:22.154Z,2508.75
2018-09-20T08:28:22.143Z,2362.50
2018-09-20T08:29:22.131Z,2475.00
2018-09-20T08:30:22.121Z,2435.63
2018-09-20T08:31:22.109Z,2289.38
2018-09-20T08:32:22.112Z,2182.50
2018-09-20T08:33:22.090Z,1591.88
2018-09-20T08:34:22.077Z,742.50
2018-09-20T08:35:22.073Z,691.88
2018-09-20T08:36:22.059Z,652.50
2018-09-20T08:37:22.081Z,641.25
2018-09-20T08:38:22.172Z,641.25
2018-09-20T08:39:22.034Z,663.75
2018-09-20T08:40:22.017Z,663.75
2018-09-20T08:41:22.009Z,708.75
2018-09-20T08:42:22.067Z,680.63
2018-09-20T08:43:21.990Z,652.50
2018-09-20T08:44:21.981Z,646.88
2018-09-20T08:45:21.980Z,630.00
2018-09-20T08:46:21.961Z,652.50
2018-09-20T08:47:21.954Z,646.88
2018-09-20T08:48:21.946Z,624.38
2018-09-20T08:49:21.934Z,618.75
2018-09-20T08:50:21.926Z,601.88
2018-09-20T08:51:21.917Z,613.13
2018-09-20T08:52:21.902Z,607.50
2018-09-20T08:53:21.902Z,601.88
2018-09-20T08:54:21.885Z,601.88
2018-09-20T08:55:21.880Z,264.38
2018-09-20T08:56:21.868Z,270.00
2018-09-20T08:57:21.861Z,270.00
2018-09-20T08:58:21.849Z,275.63
2018-09-20T08:59:21.844Z,264.38
2018-09-20T09:00:21.830Z,264.38
2018-09-20T09:01:21.826Z,270.00
2018-09-20T09:02:21.810Z,275.63
2018-09-20T09:03:21.804Z,275.63
2018-09-20T09:04:21.820Z,281.25
2018-09-20T09:05:21.792Z,275.63
2018-09-20T09:06:21.775Z,275.63
2018-09-20T09:07:21.767Z,275.63
2018-09-20T09:08:21.759Z,275.63
2018-09-20T09:09:21.745Z,230.63
2018-09-20T09:10:21.746Z,219.38
2018-09-20T09:11:21.729Z,213.75
2018-09-20T09:12:21.718Z,213.75
2018-09-20T09:13:21.714Z,213.75
2018-09-20T09:14:21.743Z,213.75
2018-09-20T09:15:21.685Z,219.38
2018-09-20T09:16:21.681Z,219.38
2018-09-20T09:17:21.770Z,219.38
2018-09-20T09:18:21.662Z,219.38
2018-09-20T09:19:21.650Z,225.00
2018-09-20T09:20:21.638Z,230.63
2018-09-20T09:21:21.636Z,219.38
2018-09-20T09:22:21.623Z,225.00
2018-09-20T09:23:21.615Z,213.75
2018-09-20T09:24:21.612Z,219.38
2018-09-20T09:25:21.594Z,213.75
2018-09-20T09:26:21.582Z,213.75
2018-09-20T09:27:21.570Z,236.25
2018-09-20T09:28:21.560Z,253.13
2018-09-20T09:29:21.548Z,258.75
2018-09-20T09:30:21.541Z,264.38
2018-09-20T09:31:21.530Z,264.38
2018-09-20T09:32:21.523Z,270.00
2018-09-20T09:33:21.515Z,275.63
2018-09-20T09:34:21.503Z,275.63
2018-09-20T09:35:21.491Z,275.63
2018-09-20T09:36:21.480Z,275.63
2018-09-20T09:37:21.470Z,281.25
2018-09-20T09:38:21.462Z,286.88
2018-09-20T09:39:21.448Z,292.50
2018-09-20T09:40:21.444Z,292.50
2018-09-20T09:41:21.428Z,281.25
2018-09-20T09:42:21.424Z,270.00
2018-09-20T09:43:21.412Z,264.38
2018-09-20T09:44:21.399Z,281.25
2018-09-20T09:45:21.388Z,264.38
2018-09-20T09:46:21.378Z,292.50
2018-09-20T09:47:21.372Z,292.50
2018-09-20T09:48:21.357Z,286.88
2018-09-20T09:49:21.349Z,303.75
2018-09-20T09:50:21.336Z,298.13
2018-09-20T09:51:21.327Z,309.38
2018-09-20T09:52:21.316Z,315.00
2018-09-20T09:53:21.311Z,315.00
2018-09-20T09:54:21.313Z,320.63
2018-09-20T09:55:21.289Z,309.38
2018-09-20T09:56:21.282Z,343.13
2018-09-20T09:57:21.269Z,354.38
2018-09-20T09:58:21.254Z,343.13
2018-09-20T09:59:21.245Z,348.75
2018-09-20T10:00:21.240Z,343.13
2018-09-20T10:01:21.220Z,337.50
2018-09-20T10:02:21.266Z,337.50
2018-09-20T10:03:21.207Z,326.25
2018-09-20T10:04:21.196Z,286.88
2018-09-20T10:05:21.186Z,281.25
2018-09-20T10:06:21.174Z,253.13
2018-09-20T10:07:21.252Z,247.50
2018-09-20T10:08:21.205Z,247.50
2018-09-20T10:09:21.156Z,253.13
2018-09-20T10:10:21.136Z,247.50
2018-09-20T10:11:21.121Z,247.50
2018-09-20T10:12:21.110Z,253.13
2018-09-20T10:13:21.143Z,247.50
2018-09-20T10:14:21.091Z,258.75
2018-09-20T10:15:21.130Z,236.25
2018-09-20T10:16:21.068Z,230.63
2018-09-20T10:17:21.054Z,213.75
2018-09-20T10:18:21.044Z,219.38
2018-09-20T10:19:21.038Z,236.25
2018-09-20T10:20:21.023Z,247.50
2018-09-20T10:21:21.020Z,281.25
2018-09-20T10:22:21.001Z,331.88
2018-09-20T10:23:20.990Z,348.75
2018-09-20T10:24:20.992Z,354.38
2018-09-20T10:25:20.979Z,365.63
2018-09-20T10:26:20.957Z,376.88
2018-09-20T10:27:20.951Z,376.88
2018-09-20T10:28:20.935Z,388.13
2018-09-20T10:29:20.931Z,365.63
2018-09-20T10:30:20.916Z,360.00
2018-09-20T10:31:20.962Z,348.75
2018-09-20T10:32:20.901Z,354.38
2018-09-20T10:33:20.882Z,371.25
2018-09-20T10:34:20.877Z,365.63
2018-09-20T10:35:20.864Z,376.88
2018-09-20T10:36:20.854Z,371.25
2018-09-20T10:37:20.843Z,365.63
2018-09-20T10:38:20.833Z,354.38
2018-09-20T10:39:20.824Z,360.00
2018-09-20T10:40:20.811Z,343.13
2018-09-20T10:41:20.795Z,343.13
2018-09-20T10:42:20.790Z,365.63
2018-09-20T10:43:20.779Z,376.88
2018-09-20T10:44:20.769Z,393.75
2018-09-20T10:45:20.758Z,376.88
2018-09-20T10:46:20.753Z,365.63
2018-09-20T10:47:20.829Z,371.25
2018-09-20T10:48:20.727Z,365.63
2018-09-20T10:49:20.726Z,348.75
2018-09-20T10:50:20.707Z,354.38
2018-09-20T10:51:20.703Z,354.38
2018-09-20T10:52:20.683Z,376.88
2018-09-20T10:53:20.677Z,382.50
2018-09-20T10:54:20.663Z,376.88
2018-09-20T10:55:20.649Z,371.25
2018-09-20T10:56:20.641Z,354.38
2018-09-20T10:57:20.634Z,320.63
2018-09-20T10:58:20.622Z,331.88
2018-09-20T10:59:20.611Z,309.38
2018-09-20T11:00:20.604Z,303.75
2018-09-20T11:01:20.593Z,320.63
2018-09-20T11:02:20.579Z,331.88
2018-09-20T11:03:20.582Z,326.25
2018-09-20T11:04:20.559Z,343.13
2018-09-20T11:05:20.552Z,360.00
2018-09-20T11:06:20.545Z,376.88
2018-09-20T11:07:20.532Z,371.25
2018-09-20T11:08:20.521Z,360.00
2018-09-20T11:09:20.513Z,354.38
2018-09-20T11:10:20.500Z,331.88
2018-09-20T11:11:20.488Z,309.38
2018-09-20T11:12:20.483Z,376.88
2018-09-20T11:13:20.468Z,393.75
2018-09-20T11:14:20.457Z,405.00
2018-09-20T11:15:20.445Z,405.00
2018-09-20T11:16:20.436Z,405.00
2018-09-20T11:17:20.440Z,410.63
2018-09-20T11:18:20.416Z,360.00
2018-09-20T11:19:20.402Z,360.00
2018-09-20T11:20:20.396Z,388.13
2018-09-20T11:21:20.388Z,410.63
2018-09-20T11:22:20.377Z,416.25
2018-09-20T11:23:20.363Z,416.25
2018-09-20T11:24:20.354Z,410.63
2018-09-20T11:25:20.346Z,416.25
2018-09-20T11:26:20.333Z,433.13
2018-09-20T11:27:20.322Z,438.75
2018-09-20T11:28:20.310Z,450.00
2018-09-20T11:29:20.307Z,450.00
2018-09-20T11:30:20.290Z,455.63
2018-09-20T11:31:20.285Z,455.63
2018-09-20T11:32:20.320Z,455.63
2018-09-20T11:33:20.262Z,444.38
2018-09-20T11:34:20.253Z,455.63
2018-09-20T11:35:20.239Z,461.25
2018-09-20T11:36:20.286Z,461.25
2018-09-20T11:37:20.221Z,466.88
2018-09-20T11:38:20.210Z,478.13
2018-09-20T11:39:20.203Z,495.00
2018-09-20T11:40:20.194Z,478.13
2018-09-20T11:41:20.191Z,495.00
2018-09-20T11:42:20.173Z,500.63
2018-09-20T11:43:20.163Z,495.00
2018-09-20T11:44:20.158Z,483.75
2018-09-20T11:45:20.147Z,511.88
2018-09-20T11:46:20.141Z,517.50
2018-09-20T11:47:20.129Z,551.25
2018-09-20T11:48:20.120Z,590.63
2018-09-20T11:49:20.112Z,630.00
2018-09-20T11:50:20.112Z,720.00
2018-09-20T11:51:20.089Z,1096.88
2018-09-20T11:52:20.077Z,2593.13
2018-09-20T11:53:20.068Z,3138.75
2018-09-20T11:54:20.061Z,2745.00
2018-09-20T11:55:20.055Z,2964.38
2018-09-20T11:56:20.046Z,3279.38
2018-09-20T11:57:20.042Z,3369.38
2018-09-20T11:58:20.030Z,3369.38
2018-09-20T11:59:20.021Z,3330.00
2018-09-20T12:00:20.015Z,3341.25
2018-09-20T12:01:20.029Z,3380.63
2018-09-20T12:02:20.000Z,3436.88
2018-09-20T12:03:20.003Z,3324.38
2018-09-20T12:04:19.985Z,3088.13
2018-09-20T12:05:19.979Z,2902.50
2018-09-20T12:06:19.971Z,2761.88
2018-09-20T12:07:19.967Z,2818.13
2018-09-20T12:08:19.966Z,3043.13
2018-09-20T12:09:19.956Z,3043.13
2018-09-20T12:10:19.946Z,3003.75
2018-09-20T12:11:19.942Z,3189.38
2018-09-20T12:12:19.936Z,3307.50
2018-09-20T12:13:19.931Z,3414.38
2018-09-20T12:14:19.972Z,3560.63
2018-09-20T12:15:19.917Z,3673.13
2018-09-20T12:16:19.912Z,3808.13
2018-09-20T12:17:19.912Z,3774.38
2018-09-20T12:18:19.909Z,3712.50
2018-09-20T12:19:19.902Z,3588.75
2018-09-20T12:20:19.904Z,3448.13
2018-09-20T12:21:19.893Z,3622.50
2018-09-20T12:22:19.890Z,3718.13
2018-09-20T12:23:19.890Z,3909.38
2018-09-20T12:24:19.882Z,4005.00
2018-09-20T12:25:19.878Z,3825.00
2018-09-20T12:26:19.874Z,3650.63
2018-09-20T12:27:19.875Z,3195.00
2018-09-20T12:28:19.870Z,2778.75
2018-09-20T12:29:19.865Z,1771.88
2018-09-20T12:30:19.861Z,1153.13
2018-09-20T12:31:19.861Z,1434.38
2018-09-20T12:32:19.908Z,1558.13
2018-09-20T12:33:19.853Z,961.88
2018-09-20T12:34:19.857Z,928.13
2018-09-20T12:35:19.868Z,748.13
2018-09-20T12:36:19.840Z,1237.50
2018-09-20T12:37:19.837Z,585.00
2018-09-20T12:38:19.842Z,534.38
2018-09-20T12:39:19.833Z,489.38
2018-09-20T12:40:19.835Z,208.13
2018-09-20T12:41:19.818Z,534.38
2018-09-20T12:42:19.817Z,433.13
2018-09-20T12:43:19.843Z,405.00
2018-09-20T12:44:19.810Z,388.13
2018-09-20T12:45:19.819Z,376.88
2018-09-20T12:46:19.798Z,360.00
2018-09-20T12:47:19.806Z,354.38